Time;durP1;ratioP1;P1;durP2;ratioP2;P2;SDS_P1;SDS_P2;PMS_P1;PMS_P2;Temp;Humidity;BMP_temperature;BMP_pressure;BME280_temperature;BME280_humidity;BME280_pressure;Samples;Min_cycle;Max_cycle;Signal;HPM_P1;HPM_P2
2023/08/17 00:04:34;;;;;;;1.38;1.27;;;;;;;;;;10365060;28;20895;-78
2023/08/17 00:09:35;;;;;;;1.88;1.80;;;;;;;;;;10370693;28;20224;-78
2023/08/17 00:14:36;;;;;;;1.65;1.65;;;;;;;;;;10358925;28;20278;-78
2023/08/17 00:19:37;;;;;;;2.50;1.40;;;;;;;;;;10346481;28;20877;-79
2023/08/17 00:24:38;;;;;;;7.13;1.75;;;;;;;;;;10366235;28;20225;-78
2023/08/17 00:29:39;;;;;;;1.38;1.38;;;;;;;;;;10368457;28;20215;-77
2023/08/17 00:34:40;;;;;;;2.63;1.30;;;;;;;;;;10365869;28;20883;-80
2023/08/17 00:39:41;;;;;;;1.75;1.65;;;;;;;;;;10375205;28;20215;-78
2023/08/17 00:44:42;;;;;;;1.95;1.75;;;;;;;;;;10366843;28;20721;-79
2023/08/17 00:49:43;;;;;;;1.35;1.35;;;;;;;;;;10352195;28;20220;-79
2023/08/17 00:54:44;;;;;;;1.23;1.17;;;;;;;;;;10380693;28;20789;-80
2023/08/17 00:59:45;;;;;;;1.58;1.38;;;;;;;;;;10366640;28;20796;-79
2023/08/17 01:04:46;;;;;;;1.65;1.55;;;;;;;;;;10365559;28;20226;-79
2023/08/17 01:09:48;;;;;;;1.52;1.52;;;;;;;;;;10369804;28;20226;-78
2023/08/17 01:14:56;;;;;;;2.88;1.55;;;;;;;;;;10374037;28;20219;-79
2023/08/17 01:19:59;;;;;;;1.20;1.20;;;;;;;;;;10386978;28;20594;-80
2023/08/17 01:25:00;;;;;;;1.80;1.30;;;;;;;;;;10378388;28;20247;-79
2023/08/17 01:30:01;;;;;;;1.80;1.70;;;;;;;;;;10377339;28;20783;-79
2023/08/17 01:35:04;;;;;;;2.08;1.98;;;;;;;;;;10380206;28;20329;-80
2023/08/17 01:40:07;;;;;;;1.58;1.48;;;;;;;;;;10378651;28;20251;-80
2023/08/17 01:45:08;;;;;;;1.73;1.65;;;;;;;;;;10381159;28;20734;-81
2023/08/17 01:50:10;;;;;;;2.05;1.30;;;;;;;;;;10387147;28;20183;-80
2023/08/17 01:55:11;;;;;;;1.73;1.63;;;;;;;;;;10373609;28;20211;-81
2023/08/17 02:00:13;;;;;;;2.10;2.00;;;;;;;;;;10385172;28;20254;-80
2023/08/17 02:05:17;;;;;;;2.05;1.48;;;;;;;;;;10383772;28;20283;-79
2023/08/17 02:10:20;;;;;;;2.47;2.22;;;;;;;;;;10387416;28;20208;-80
2023/08/17 02:15:23;;;;;;;4.53;1.50;;;;;;;;;;10382134;28;20235;-78
2023/08/17 02:20:24;;;;;;;1.50;1.50;;;;;;;;;;10379346;28;20688;-79
2023/08/17 02:25:25;;;;;;;1.70;1.50;;;;;;;;;;10378260;28;21263;-78
2023/08/17 02:30:26;;;;;;;1.10;0.98;;;;;;;;;;10374537;28;20216;-80
2023/08/17 02:35:27;;;;;;;2.78;2.05;;;;;;;;;;10384601;28;20231;-80
2023/08/17 02:40:28;;;;;;;3.55;1.85;;;;;;;;;;10381588;28;20219;-81
2023/08/17 02:45:29;;;;;;;2.88;1.75;;;;;;;;;;10374109;28;20409;-80
2023/08/17 02:50:32;;;;;;;1.92;1.88;;;;;;;;;;10380366;28;20666;-79
2023/08/17 02:55:33;;;;;;;1.77;1.67;;;;;;;;;;10373620;28;20219;-80
2023/08/17 03:00:34;;;;;;;5.85;2.75;;;;;;;;;;10363595;28;20276;-81
2023/08/17 03:05:35;;;;;;;6.78;2.70;;;;;;;;;;10424192;28;20229;-80
2023/08/17 03:10:37;;;;;;;2.15;2.05;;;;;;;;;;10423051;28;20230;-81
2023/08/17 03:15:39;;;;;;;1.75;1.75;;;;;;;;;;10422001;28;20226;-80
2023/08/17 03:20:41;;;;;;;1.83;1.83;;;;;;;;;;10420579;28;20301;-81
2023/08/17 03:25:42;;;;;;;2.38;2.10;;;;;;;;;;10418407;28;20226;-80
2023/08/17 03:30:43;;;;;;;1.60;1.60;;;;;;;;;;10405693;28;20814;-80
2023/08/17 03:35:44;;;;;;;2.42;2.00;;;;;;;;;;10415925;28;20227;-82
2023/08/17 03:40:47;;;;;;;2.45;1.95;;;;;;;;;;10416057;28;20206;-81
2023/08/17 03:45:48;;;;;;;2.50;1.73;;;;;;;;;;10432732;28;20218;-82
2023/08/17 03:50:53;;;;;;;3.35;1.92;;;;;;;;;;10415858;28;20238;-82
2023/08/17 03:55:54;;;;;;;2.38;1.98;;;;;;;;;;10405269;28;20896;-82
2023/08/17 04:00:55;;;;;;;3.85;2.33;;;;;;;;;;10417278;28;20217;-81
2023/08/17 04:06:06;;;;;;;3.45;1.40;;;;;;;;;;10402402;28;20221;-82
2023/08/17 04:11:07;;;;;;;1.83;1.73;;;;;;;;;;10410630;28;20210;-79
2023/08/17 04:16:08;;;;;;;2.72;1.73;;;;;;;;;;10418951;28;20242;-80
2023/08/17 04:21:09;;;;;;;1.90;1.80;;;;;;;;;;10417945;28;20768;-79
2023/08/17 04:26:10;;;;;;;2.15;2.05;;;;;;;;;;10414340;28;21900;-80
2023/08/17 04:31:12;;;;;;;4.25;3.08;;;;;;;;;;10401458;28;20312;-79
2023/08/17 04:36:15;;;;;;;4.00;2.75;;;;;;;;;;10391860;28;20227;-78
2023/08/17 04:41:16;;;;;;;2.65;2.55;;;;;;;;;;10432650;28;20227;-80
2023/08/17 04:46:18;;;;;;;3.63;2.45;;;;;;;;;;10425682;28;20897;-79
2023/08/17 04:51:19;;;;;;;4.18;2.60;;;;;;;;;;10415535;28;21003;-79
2023/08/17 04:56:20;;;;;;;3.08;2.40;;;;;;;;;;10412656;28;20233;-79
2023/08/17 05:01:22;;;;;;;1.85;1.85;;;;;;;;;;10379884;28;20215;-77
2023/08/17 05:06:23;;;;;;;1.55;1.45;;;;;;;;;;10408218;28;20229;-78
2023/08/17 05:11:25;;;;;;;3.90;1.98;;;;;;;;;;10393544;28;20304;-80
2023/08/17 05:16:26;;;;;;;1.67;1.58;;;;;;;;;;10384738;28;20227;-79
2023/08/17 05:21:27;;;;;;;2.08;1.98;;;;;;;;;;10393285;28;20583;-78
2023/08/17 05:26:28;;;;;;;1.70;1.70;;;;;;;;;;10403780;28;20989;-78
2023/08/17 05:31:29;;;;;;;1.48;1.48;;;;;;;;;;10408533;28;20203;-79
2023/08/17 05:36:31;;;;;;;3.33;1.38;;;;;;;;;;10380553;28;20218;-81
2023/08/17 05:41:32;;;;;;;1.70;1.60;;;;;;;;;;10421736;28;20842;-78
2023/08/17 05:46:33;;;;;;;1.75;1.73;;;;;;;;;;10426870;28;20298;-78
2023/08/17 05:51:34;;;;;;;1.52;1.52;;;;;;;;;;10413361;28;20765;-78
2023/08/17 05:56:35;;;;;;;1.75;1.67;;;;;;;;;;10407976;28;21959;-76
2023/08/17 06:01:37;;;;;;;1.40;1.30;;;;;;;;;;10410491;28;20237;-75
2023/08/17 06:06:38;;;;;;;1.65;1.63;;;;;;;;;;10409614;28;20219;-78
2023/08/17 06:11:39;;;;;;;1.40;1.40;;;;;;;;;;10410071;28;21212;-78
2023/08/17 06:16:40;;;;;;;1.38;1.38;;;;;;;;;;10412929;28;20257;-79
2023/08/17 06:21:42;;;;;;;1.38;1.38;;;;;;;;;;10405468;28;20223;-79
2023/08/17 06:26:44;;;;;;;2.13;1.23;;;;;;;;;;10406176;28;20214;-78
2023/08/17 06:31:45;;;;;;;3.03;1.50;;;;;;;;;;10418536;28;20218;-77
2023/08/17 06:36:56;;;;;;;1.42;1.40;;;;;;;;;;10402598;28;20227;-78
2023/08/17 06:41:57;;;;;;;2.05;1.80;;;;;;;;;;10407391;28;20211;-77
2023/08/17 06:46:58;;;;;;;1.73;1.73;;;;;;;;;;10413173;28;20227;-77
2023/08/17 06:52:00;;;;;;;1.63;1.63;;;;;;;;;;10413135;28;20213;-76
2023/08/17 06:57:01;;;;;;;2.42;2.22;;;;;;;;;;10408665;28;20226;-79
2023/08/17 07:02:02;;;;;;;3.25;2.00;;;;;;;;;;10403979;28;20219;-77
2023/08/17 07:07:03;;;;;;;2.75;2.50;;;;;;;;;;10404455;28;23891;-79
2023/08/17 07:12:04;;;;;;;2.58;2.42;;;;;;;;;;10403512;28;20219;-81
2023/08/17 07:17:05;;;;;;;1.50;1.42;;;;;;;;;;10407850;28;20627;-80
2023/08/17 07:22:06;;;;;;;2.17;2.05;;;;;;;;;;10405014;28;20211;-78
2023/08/17 07:27:07;;;;;;;3.10;1.85;;;;;;;;;;10397191;28;20631;-78
2023/08/17 07:32:08;;;;;;;2.58;2.40;;;;;;;;;;10400987;28;20217;-79
2023/08/17 07:37:10;;;;;;;1.52;1.52;;;;;;;;;;10406663;28;20226;-80
2023/08/17 07:42:11;;;;;;;6.03;1.80;;;;;;;;;;10409338;28;20242;-80
2023/08/17 07:47:12;;;;;;;3.10;2.25;;;;;;;;;;10421416;28;20216;-81
2023/08/17 07:52:13;;;;;;;2.00;1.90;;;;;;;;;;10410337;28;20213;-80
2023/08/17 07:57:14;;;;;;;2.45;2.15;;;;;;;;;;10409393;28;20223;-81
2023/08/17 08:02:15;;;;;;;2.08;1.88;;;;;;;;;;10405266;28;20229;-80
2023/08/17 08:07:16;;;;;;;1.70;1.70;;;;;;;;;;10409512;28;20861;-82
2023/08/17 08:12:17;;;;;;;1.88;1.75;;;;;;;;;;10408778;28;20216;-80
2023/08/17 08:17:19;;;;;;;2.25;1.73;;;;;;;;;;10406293;28;20254;-79
2023/08/17 08:22:20;;;;;;;2.05;1.77;;;;;;;;;;10412249;28;20207;-80
2023/08/17 08:27:21;;;;;;;1.98;1.90;;;;;;;;;;10409271;28;20219;-81
2023/08/17 08:32:22;;;;;;;1.55;1.55;;;;;;;;;;10410653;28;20211;-80
2023/08/17 08:37:23;;;;;;;3.35;2.00;;;;;;;;;;10413863;28;20218;-79
2023/08/17 08:42:25;;;;;;;2.17;1.88;;;;;;;;;;10406279;28;20225;-80
2023/08/17 08:47:27;;;;;;;1.60;1.52;;;;;;;;;;10409230;28;20301;-79
2023/08/17 08:52:33;;;;;;;1.85;1.38;;;;;;;;;;10427058;28;20265;-80
2023/08/17 08:57:34;;;;;;;3.35;1.75;;;;;;;;;;10414042;28;20518;-77
2023/08/17 09:02:35;;;;;;;1.70;1.70;;;;;;;;;;10420467;28;20238;-80
2023/08/17 09:07:37;;;;;;;1.30;1.30;;;;;;;;;;10412836;28;20269;-79
2023/08/17 09:12:40;;;;;;;1.85;1.75;;;;;;;;;;10415091;28;20602;-80
2023/08/17 09:17:41;;;;;;;1.50;1.50;;;;;;;;;;10402741;28;20230;-79
2023/08/17 09:22:43;;;;;;;1.55;1.50;;;;;;;;;;10415545;28;20246;-79
2023/08/17 09:27:44;;;;;;;1.65;1.55;;;;;;;;;;10409730;28;20218;-80
2023/08/17 09:32:49;;;;;;;1.60;1.60;;;;;;;;;;10415791;28;20224;-79
2023/08/17 09:37:50;;;;;;;1.90;1.83;;;;;;;;;;10409574;28;20215;-78
2023/08/17 09:42:52;;;;;;;1.30;1.30;;;;;;;;;;10418956;28;20656;-79
2023/08/17 09:47:53;;;;;;;1.60;1.30;;;;;;;;;;10419698;28;20226;-78
2023/08/17 09:52:54;;;;;;;1.58;1.48;;;;;;;;;;10396920;28;20275;-78
2023/08/17 09:57:56;;;;;;;3.50;1.52;;;;;;;;;;10416323;28;20788;-80
2023/08/17 10:02:58;;;;;;;1.50;1.50;;;;;;;;;;10407121;28;20223;-80
2023/08/17 10:08:00;;;;;;;1.40;1.40;;;;;;;;;;10407319;28;20622;-79
2023/08/17 10:13:06;;;;;;;2.50;2.40;;;;;;;;;;10403765;28;21156;-80
2023/08/17 10:18:17;;;;;;;3.97;2.28;;;;;;;;;;10411538;28;20219;-77
2023/08/17 10:23:19;;;;;;;2.55;2.42;;;;;;;;;;10395728;28;20214;-79
2023/08/17 10:28:22;;;;;;;2.30;2.20;;;;;;;;;;10402555;28;20228;-79
2023/08/17 10:33:23;;;;;;;2.42;2.33;;;;;;;;;;10403273;28;20225;-79
2023/08/17 10:38:24;;;;;;;2.47;2.08;;;;;;;;;;10408787;28;20215;-79
2023/08/17 10:43:33;;;;;;;2.30;2.20;;;;;;;;;;10404079;28;20223;-78
2023/08/17 10:48:34;;;;;;;1.73;1.73;;;;;;;;;;10405971;28;20899;-78
2023/08/17 10:53:38;;;;;;;2.15;2.05;;;;;;;;;;10414548;28;20215;-79
2023/08/17 10:58:41;;;;;;;2.33;2.22;;;;;;;;;;10413883;28;20215;-79
2023/08/17 11:03:43;;;;;;;2.35;2.25;;;;;;;;;;10410470;28;20273;-80
2023/08/17 11:08:55;;;;;;;2.20;2.15;;;;;;;;;;10414866;28;20221;-80
2023/08/17 11:13:57;;;;;;;1.80;1.80;;;;;;;;;;10408418;28;20253;-80
2023/08/17 11:19:00;;;;;;;2.35;2.05;;;;;;;;;;10413702;28;20222;-79
2023/08/17 11:24:01;;;;;;;2.60;2.40;;;;;;;;;;10406845;28;20243;-79
2023/08/17 11:29:03;;;;;;;2.33;2.28;;;;;;;;;;10410717;28;20761;-77
2023/08/17 11:34:04;;;;;;;2.75;2.55;;;;;;;;;;10416354;28;20220;-79
2023/08/17 11:39:05;;;;;;;2.63;2.22;;;;;;;;;;10410145;28;20309;-77
2023/08/17 11:44:06;;;;;;;2.58;2.45;;;;;;;;;;10397048;28;20269;-80
2023/08/17 11:49:07;;;;;;;6.50;2.30;;;;;;;;;;10402785;28;20215;-77
2023/08/17 11:54:08;;;;;;;4.10;2.80;;;;;;;;;;10381787;28;20215;-78
2023/08/17 11:59:19;;;;;;;2.50;2.50;;;;;;;;;;10387554;28;20214;-77
2023/08/17 12:04:22;;;;;;;2.45;2.35;;;;;;;;;;10396082;28;20638;-78
2023/08/17 12:09:23;;;;;;;1.80;1.80;;;;;;;;;;10411053;28;20219;-79
2023/08/17 12:14:26;;;;;;;1.90;1.90;;;;;;;;;;10391407;28;20616;-82
2023/08/17 12:19:27;;;;;;;3.03;2.72;;;;;;;;;;10413192;28;20297;-81
2023/08/17 12:24:28;;;;;;;4.10;2.67;;;;;;;;;;10401695;28;20219;-80
2023/08/17 12:29:30;;;;;;;3.00;2.80;;;;;;;;;;10410499;28;20225;-82
2023/08/17 12:34:31;;;;;;;3.42;3.33;;;;;;;;;;10414131;28;20240;-78
2023/08/17 12:39:32;;;;;;;2.50;2.40;;;;;;;;;;10414719;28;20222;-78
2023/08/17 12:44:33;;;;;;;2.72;2.60;;;;;;;;;;10411567;28;20223;-80
2023/08/17 12:49:34;;;;;;;2.78;2.67;;;;;;;;;;10411819;28;20238;-80
2023/08/17 12:54:35;;;;;;;3.25;3.05;;;;;;;;;;10407389;28;20318;-75
2023/08/17 12:59:36;;;;;;;3.03;2.92;;;;;;;;;;10409818;28;20215;-77
2023/08/17 13:04:37;;;;;;;3.75;3.42;;;;;;;;;;10407669;28;20770;-78
2023/08/17 13:09:38;;;;;;;3.65;3.45;;;;;;;;;;10411321;28;20214;-80
2023/08/17 13:14:39;;;;;;;3.25;3.15;;;;;;;;;;10424587;28;21600;-81
2023/08/17 13:19:40;;;;;;;4.72;3.45;;;;;;;;;;10412493;28;20275;-77
2023/08/17 13:24:41;;;;;;;3.60;3.40;;;;;;;;;;10418663;28;20241;-79
2023/08/17 13:29:42;;;;;;;3.63;3.58;;;;;;;;;;10418113;28;20268;-79
2023/08/17 13:34:43;;;;;;;4.75;3.97;;;;;;;;;;10408495;28;20281;-79
2023/08/17 13:39:45;;;;;;;4.80;4.45;;;;;;;;;;10419164;28;20215;-78
2023/08/17 13:44:46;;;;;;;4.50;4.20;;;;;;;;;;10418702;28;20222;-80
2023/08/17 13:49:47;;;;;;;4.05;3.85;;;;;;;;;;10420865;28;20302;-78
2023/08/17 13:54:49;;;;;;;5.28;4.38;;;;;;;;;;10400412;28;20761;-79
2023/08/17 13:59:50;;;;;;;5.07;3.97;;;;;;;;;;10408273;28;22139;-78
2023/08/17 14:04:51;;;;;;;4.90;4.20;;;;;;;;;;10406157;28;20219;-75
2023/08/17 14:09:52;;;;;;;4.50;4.03;;;;;;;;;;10403486;28;20256;-79
2023/08/17 14:14:53;;;;;;;3.15;3.05;;;;;;;;;;10408014;28;20242;-78
2023/08/17 14:19:55;;;;;;;4.45;4.15;;;;;;;;;;10405134;28;20735;-78
2023/08/17 14:24:56;;;;;;;4.20;4.00;;;;;;;;;;10403320;28;20231;-79
2023/08/17 14:30:01;;;;;;;4.13;3.92;;;;;;;;;;10402837;28;20352;-79
2023/08/17 14:35:02;;;;;;;9.55;3.67;;;;;;;;;;10405994;28;20607;-78
2023/08/17 14:40:03;;;;;;;4.35;3.95;;;;;;;;;;10410191;28;20171;-78
2023/08/17 14:45:04;;;;;;;4.50;4.30;;;;;;;;;;10398245;28;20580;-80
2023/08/17 14:50:06;;;;;;;3.85;3.63;;;;;;;;;;10396474;28;20195;-80
2023/08/17 14:55:07;;;;;;;4.78;4.38;;;;;;;;;;10394149;28;20214;-79
2023/08/17 15:00:09;;;;;;;4.50;4.20;;;;;;;;;;10410540;28;20183;-78
2023/08/17 15:05:10;;;;;;;4.63;4.43;;;;;;;;;;10403123;28;20215;-78
2023/08/17 15:10:11;;;;;;;4.18;3.97;;;;;;;;;;10412672;28;20183;-79
2023/08/17 15:15:12;;;;;;;3.97;3.88;;;;;;;;;;10411365;28;20230;-79
2023/08/17 15:20:13;;;;;;;4.07;3.78;;;;;;;;;;10401896;28;20230;-80
2023/08/17 15:25:14;;;;;;;4.13;3.92;;;;;;;;;;10404359;28;20917;-81
2023/08/17 15:30:15;;;;;;;4.05;3.75;;;;;;;;;;10409490;28;20178;-79
2023/08/17 15:35:16;;;;;;;3.78;3.67;;;;;;;;;;10402979;28;20813;-79
2023/08/17 15:40:17;;;;;;;3.80;3.70;;;;;;;;;;10400814;28;20167;-79
2023/08/17 15:45:20;;;;;;;3.72;3.55;;;;;;;;;;10402910;28;20931;-76
2023/08/17 15:50:21;;;;;;;3.63;3.53;;;;;;;;;;10398174;28;20183;-78
2023/08/17 15:55:22;;;;;;;2.88;2.80;;;;;;;;;;10408442;28;20237;-79
2023/08/17 16:00:23;;;;;;;3.95;3.67;;;;;;;;;;10404485;28;20180;-79
2023/08/17 16:05:24;;;;;;;3.58;3.28;;;;;;;;;;10400945;28;20261;-79
2023/08/17 16:10:25;;;;;;;3.40;3.17;;;;;;;;;;10403407;28;20222;-80
2023/08/17 16:15:26;;;;;;;3.95;3.33;;;;;;;;;;10400069;28;20246;-79
2023/08/17 16:20:33;;;;;;;2.72;2.53;;;;;;;;;;10420811;28;20713;-79
2023/08/17 16:25:34;;;;;;;2.85;2.75;;;;;;;;;;10401536;28;20225;-77
2023/08/17 16:30:37;;;;;;;3.22;3.13;;;;;;;;;;10399430;28;20356;-77
2023/08/17 16:35:38;;;;;;;2.50;2.50;;;;;;;;;;10398393;28;20714;-76
2023/08/17 16:40:39;;;;;;;2.47;2.22;;;;;;;;;;10406934;28;20773;-78
2023/08/17 16:45:40;;;;;;;2.88;2.78;;;;;;;;;;10399252;28;20225;-75
2023/08/17 16:50:42;;;;;;;2.78;2.67;;;;;;;;;;10408075;28;20214;-76
2023/08/17 16:55:43;;;;;;;3.22;2.22;;;;;;;;;;10403603;28;20737;-76
2023/08/17 17:00:44;;;;;;;2.50;2.33;;;;;;;;;;10407553;28;20577;-79
2023/08/17 17:05:45;;;;;;;5.00;2.63;;;;;;;;;;10409949;28;20211;-77
2023/08/17 17:10:46;;;;;;;2.28;2.20;;;;;;;;;;10405655;28;20237;-78
2023/08/17 17:15:47;;;;;;;2.20;2.17;;;;;;;;;;10404073;28;20237;-77
2023/08/17 17:20:49;;;;;;;2.25;2.15;;;;;;;;;;10417750;28;20211;-76
2023/08/17 17:25:50;;;;;;;2.30;2.20;;;;;;;;;;10394086;28;20215;-76
2023/08/17 17:30:51;;;;;;;2.55;2.40;;;;;;;;;;10395329;28;20702;-77
2023/08/17 17:35:52;;;;;;;1.88;1.88;;;;;;;;;;10406553;28;20222;-78
2023/08/17 17:40:53;;;;;;;4.05;2.33;;;;;;;;;;10408663;28;20218;-78
2023/08/17 17:45:54;;;;;;;2.63;2.53;;;;;;;;;;10408863;28;20222;-78
2023/08/17 17:50:55;;;;;;;2.30;2.20;;;;;;;;;;10414713;28;20847;-76
2023/08/17 17:55:56;;;;;;;2.80;2.70;;;;;;;;;;10389290;28;20261;-76
2023/08/17 18:00:57;;;;;;;3.72;2.63;;;;;;;;;;10407582;28;20294;-78
2023/08/17 18:05:58;;;;;;;3.42;2.30;;;;;;;;;;10405763;28;20579;-75
2023/08/17 18:10:59;;;;;;;4.65;2.80;;;;;;;;;;10395531;28;20203;-76
2023/08/17 18:16:00;;;;;;;2.15;2.10;;;;;;;;;;10406485;28;20247;-77
2023/08/17 18:21:01;;;;;;;2.10;2.10;;;;;;;;;;10404656;28;20252;-77
2023/08/17 18:26:02;;;;;;;2.20;2.10;;;;;;;;;;10412597;28;21126;-77
2023/08/17 18:31:03;;;;;;;2.58;2.45;;;;;;;;;;10408420;28;20245;-78
2023/08/17 18:36:05;;;;;;;2.88;2.15;;;;;;;;;;10412506;28;20751;-79
2023/08/17 18:41:10;;;;;;;2.50;2.28;;;;;;;;;;10404792;28;20230;-79
2023/08/17 18:46:11;;;;;;;1.98;1.88;;;;;;;;;;10410407;28;20349;-77
2023/08/17 18:51:12;;;;;;;2.60;2.50;;;;;;;;;;10404395;28;20272;-78
2023/08/17 18:56:13;;;;;;;2.38;2.28;;;;;;;;;;10399412;28;20230;-79
2023/08/17 19:01:14;;;;;;;2.08;1.98;;;;;;;;;;10408734;28;20221;-78
2023/08/17 19:06:15;;;;;;;2.60;2.50;;;;;;;;;;10400711;28;20249;-79
2023/08/17 19:17:19;;;;;;;3.45;2.55;;;;;;;;;;10402205;28;20708;-80
2023/08/17 19:22:21;;;;;;;2.97;2.35;;;;;;;;;;10397823;28;21084;-76
2023/08/17 19:27:22;;;;;;;2.25;1.88;;;;;;;;;;10397667;28;20218;-80
2023/08/17 19:32:23;;;;;;;2.55;2.45;;;;;;;;;;10398394;28;20214;-78
2023/08/17 19:37:24;;;;;;;2.50;2.40;;;;;;;;;;10402835;28;20226;-78
2023/08/17 19:42:25;;;;;;;2.63;2.53;;;;;;;;;;10395064;28;20645;-76
2023/08/17 19:47:26;;;;;;;2.65;2.55;;;;;;;;;;10402398;28;20222;-76
2023/08/17 19:52:27;;;;;;;3.38;2.40;;;;;;;;;;10394160;28;20220;-79
2023/08/17 19:57:29;;;;;;;2.60;2.45;;;;;;;;;;10394918;28;20230;-78
2023/08/17 20:02:30;;;;;;;2.95;2.80;;;;;;;;;;10400250;28;20218;-80
2023/08/17 20:07:33;;;;;;;2.50;1.70;;;;;;;;;;10395502;28;20586;-77
2023/08/17 20:12:34;;;;;;;1.80;1.80;;;;;;;;;;10407273;28;20337;-77
2023/08/17 20:17:35;;;;;;;2.75;2.33;;;;;;;;;;10394295;28;20227;-78
2023/08/17 20:22:36;;;;;;;7.43;2.13;;;;;;;;;;10392152;28;20687;-77
2023/08/17 20:27:37;;;;;;;2.33;2.10;;;;;;;;;;10410360;28;20232;-76
2023/08/17 20:32:38;;;;;;;2.80;1.80;;;;;;;;;;10408563;28;20215;-78
2023/08/17 20:37:40;;;;;;;1.92;1.83;;;;;;;;;;10408579;28;20252;-78
2023/08/17 20:42:41;;;;;;;1.65;1.55;;;;;;;;;;10405023;28;20685;-78
2023/08/17 20:47:42;;;;;;;1.65;1.65;;;;;;;;;;10403188;28;20715;-78
2023/08/17 20:52:43;;;;;;;2.05;1.90;;;;;;;;;;10407121;28;20218;-78
2023/08/17 20:57:44;;;;;;;1.83;1.73;;;;;;;;;;10408425;28;20345;-76
2023/08/17 21:02:45;;;;;;;2.33;2.13;;;;;;;;;;10422397;28;20225;-76
2023/08/17 21:07:46;;;;;;;1.40;1.40;;;;;;;;;;10417464;28;20237;-76
2023/08/17 21:12:47;;;;;;;1.92;1.83;;;;;;;;;;10414573;28;20218;-76
2023/08/17 21:17:48;;;;;;;1.63;1.38;;;;;;;;;;10376669;28;20220;-79
2023/08/17 21:22:49;;;;;;;1.33;1.33;;;;;;;;;;10358591;28;20223;-76
2023/08/17 21:27:50;;;;;;;2.92;1.75;;;;;;;;;;10371971;28;20219;-77
2023/08/17 21:32:52;;;;;;;1.58;1.20;;;;;;;;;;10374408;28;20227;-76
2023/08/17 21:37:53;;;;;;;1.50;1.50;;;;;;;;;;10359937;28;20227;-77
2023/08/17 21:42:54;;;;;;;5.97;2.00;;;;;;;;;;10335356;28;20223;-77
2023/08/17 21:47:55;;;;;;;3.10;1.55;;;;;;;;;;10372979;28;20320;-78
2023/08/17 21:52:57;;;;;;;1.35;1.30;;;;;;;;;;10354645;28;20331;-76
2023/08/17 21:57:59;;;;;;;2.00;1.83;;;;;;;;;;10368422;28;20258;-76
2023/08/17 22:03:04;;;;;;;1.55;1.52;;;;;;;;;;10349557;28;20231;-79
2023/08/17 22:08:06;;;;;;;4.20;1.23;;;;;;;;;;10367691;28;20265;-77
2023/08/17 22:13:07;;;;;;;1.75;1.60;;;;;;;;;;10356893;28;20224;-77
2023/08/17 22:18:08;;;;;;;1.30;1.30;;;;;;;;;;10414744;28;20271;-78
2023/08/17 22:23:09;;;;;;;2.60;1.48;;;;;;;;;;10414216;28;20218;-76
2023/08/17 22:28:10;;;;;;;1.80;1.40;;;;;;;;;;10414939;28;20226;-76
2023/08/17 22:33:11;;;;;;;1.42;1.42;;;;;;;;;;10411350;28;20246;-77
2023/08/17 22:38:12;;;;;;;0.95;0.95;;;;;;;;;;10417785;28;20223;-77
2023/08/17 22:43:13;;;;;;;1.80;1.70;;;;;;;;;;10406237;28;20226;-77
2023/08/17 22:48:14;;;;;;;1.15;1.05;;;;;;;;;;10406366;28;20207;-77
2023/08/17 22:53:15;;;;;;;1.05;1.05;;;;;;;;;;10404621;28;20283;-78
2023/08/17 22:58:16;;;;;;;1.33;1.33;;;;;;;;;;10411164;28;20214;-78
2023/08/17 23:03:17;;;;;;;1.70;1.70;;;;;;;;;;10410985;28;20219;-79
2023/08/17 23:08:18;;;;;;;1.50;1.40;;;;;;;;;;10411514;28;20214;-78
2023/08/17 23:13:19;;;;;;;1.27;1.27;;;;;;;;;;10414926;28;22593;-80
2023/08/17 23:18:20;;;;;;;1.10;1.10;;;;;;;;;;10410774;28;20215;-80
2023/08/17 23:23:21;;;;;;;1.60;1.50;;;;;;;;;;10409502;28;20748;-78
2023/08/17 23:28:22;;;;;;;2.28;1.60;;;;;;;;;;10411965;28;20219;-76
2023/08/17 23:33:23;;;;;;;5.88;1.13;;;;;;;;;;10411054;28;20280;-78
2023/08/17 23:38:25;;;;;;;1.55;1.45;;;;;;;;;;10396729;28;20726;-79
2023/08/17 23:43:26;;;;;;;1.27;1.27;;;;;;;;;;10408725;28;20222;-80
2023/08/17 23:48:27;;;;;;;1.48;1.48;;;;;;;;;;10402381;28;20242;-77
2023/08/17 23:53:28;;;;;;;1.30;1.20;;;;;;;;;;10415982;28;20905;-77
2023/08/17 23:58:29;;;;;;;1.27;1.27;;;;;;;;;;10394375;28;20215;-77
